Hiroshima, Japan
Current Conditions -  °F | °C
As of 8:55 PM on Wednesday 28 Jan 2015 (Local Time) from RJOI Reporting Station
Scattered Clouds Scattered Clouds  
Wind Chill: 34°   Ceiling: Unl
Heat Index: 42°   Visibility: 6mi
Dew Point: 30°   Wind: 16mph
Humidity: 62%   Direction: 10°N
Pressure: 30.34"   Gusts: NA
Location:  34.39°N, 132.44°E
Report Text: RJOI 281155Z 01014KT 9999 FEW020 SCT040 06/M01 A3034 RMK SLP273 T00561011 10089 20056 52020
Loading
Personal Weather Stations






























Interactive Weather Map New forecast layout! Learn more

10-Day Weather Forecast

Advertisements
Track Severe Weather on mobile